sensor_id;sensor_type;location;lat;lon;timestamp;P1;durP1;ratioP1;P2;durP2;ratioP2
67516;SDS011;68821;59.134;37.894;2023-07-31T00:00:38;68.40;;;21.08;;
67516;SDS011;68821;59.134;37.894;2023-07-31T00:03:04;46.78;;;17.60;;
67516;SDS011;68821;59.134;37.894;2023-07-31T00:05:30;39.88;;;16.67;;
67516;SDS011;68821;59.134;37.894;2023-07-31T00:07:56;63.35;;;24.45;;
67516;SDS011;68821;59.134;37.894;2023-07-31T00:10:22;96.55;;;34.97;;
67516;SDS011;68821;59.134;37.894;2023-07-31T00:12:48;107.03;;;38.10;;
67516;SDS011;68821;59.134;37.894;2023-07-31T00:15:14;211.82;;;65.13;;
67516;SDS011;68821;59.134;37.894;2023-07-31T00:17:40;203.02;;;63.42;;
67516;SDS011;68821;59.134;37.894;2023-07-31T00:20:07;74.97;;;29.00;;
67516;SDS011;68821;59.134;37.894;2023-07-31T00:22:33;61.92;;;26.17;;
67516;SDS011;68821;59.134;37.894;2023-07-31T00:24:59;47.78;;;18.20;;
67516;SDS011;68821;59.134;37.894;2023-07-31T00:27:25;34.55;;;15.65;;
67516;SDS011;68821;59.134;37.894;2023-07-31T00:29:51;31.63;;;12.63;;
67516;SDS011;68821;59.134;37.894;2023-07-31T00:32:17;35.58;;;13.27;;
67516;SDS011;68821;59.134;37.894;2023-07-31T00:34:43;30.77;;;12.02;;
67516;SDS011;68821;59.134;37.894;2023-07-31T00:37:09;32.03;;;13.38;;
67516;SDS011;68821;59.134;37.894;2023-07-31T00:39:35;42.45;;;16.20;;
67516;SDS011;68821;59.134;37.894;2023-07-31T00:42:02;60.67;;;20.17;;
67516;SDS011;68821;59.134;37.894;2023-07-31T00:44:28;79.53;;;26.75;;
67516;SDS011;68821;59.134;37.894;2023-07-31T00:46:54;84.60;;;27.33;;
67516;SDS011;68821;59.134;37.894;2023-07-31T00:49:22;90.88;;;27.58;;
67516;SDS011;68821;59.134;37.894;2023-07-31T00:51:48;104.57;;;33.60;;
67516;SDS011;68821;59.134;37.894;2023-07-31T00:54:14;113.35;;;35.22;;
67516;SDS011;68821;59.134;37.894;2023-07-31T00:56:40;85.53;;;29.60;;
67516;SDS011;68821;59.134;37.894;2023-07-31T00:59:10;72.72;;;26.40;;
67516;SDS011;68821;59.134;37.894;2023-07-31T01:01:36;40.47;;;16.17;;
67516;SDS011;68821;59.134;37.894;2023-07-31T01:04:02;36.85;;;13.48;;
67516;SDS011;68821;59.134;37.894;2023-07-31T01:12:00;40.58;;;16.60;;
67516;SDS011;68821;59.134;37.894;2023-07-31T01:14:28;52.47;;;20.30;;
67516;SDS011;68821;59.134;37.894;2023-07-31T01:16:54;44.72;;;17.45;;
67516;SDS011;68821;59.134;37.894;2023-07-31T01:19:21;37.60;;;15.73;;
67516;SDS011;68821;59.134;37.894;2023-07-31T01:21:58;31.33;;;15.77;;
67516;SDS011;68821;59.134;37.894;2023-07-31T01:27:43;29.30;;;13.27;;
67516;SDS011;68821;59.134;37.894;2023-07-31T01:30:16;38.03;;;14.77;;
67516;SDS011;68821;59.134;37.894;2023-07-31T01:32:48;63.25;;;21.95;;
67516;SDS011;68821;59.134;37.894;2023-07-31T01:35:15;61.15;;;19.58;;
67516;SDS011;68821;59.134;37.894;2023-07-31T01:37:41;81.10;;;22.65;;
67516;SDS011;68821;59.134;37.894;2023-07-31T01:40:07;67.88;;;23.00;;
67516;SDS011;68821;59.134;37.894;2023-07-31T01:42:33;65.70;;;22.55;;
67516;SDS011;68821;59.134;37.894;2023-07-31T01:44:59;60.28;;;23.58;;
67516;SDS011;68821;59.134;37.894;2023-07-31T01:47:25;74.20;;;28.30;;
67516;SDS011;68821;59.134;37.894;2023-07-31T01:49:51;55.83;;;24.50;;
67516;SDS011;68821;59.134;37.894;2023-07-31T01:52:17;52.67;;;23.23;;
67516;SDS011;68821;59.134;37.894;2023-07-31T01:54:43;62.53;;;24.13;;
67516;SDS011;68821;59.134;37.894;2023-07-31T01:57:09;71.97;;;30.98;;
67516;SDS011;68821;59.134;37.894;2023-07-31T01:59:35;65.78;;;26.67;;
67516;SDS011;68821;59.134;37.894;2023-07-31T02:02:01;50.40;;;21.63;;
67516;SDS011;68821;59.134;37.894;2023-07-31T02:04:27;43.05;;;20.48;;
67516;SDS011;68821;59.134;37.894;2023-07-31T02:06:53;70.07;;;25.25;;
67516;SDS011;68821;59.134;37.894;2023-07-31T02:09:19;68.40;;;36.42;;
67516;SDS011;68821;59.134;37.894;2023-07-31T02:11:45;54.20;;;26.58;;
67516;SDS011;68821;59.134;37.894;2023-07-31T02:14:11;50.35;;;19.95;;
67516;SDS011;68821;59.134;37.894;2023-07-31T02:16:37;44.60;;;16.40;;
67516;SDS011;68821;59.134;37.894;2023-07-31T02:19:03;41.88;;;16.17;;
67516;SDS011;68821;59.134;37.894;2023-07-31T02:21:29;48.58;;;16.83;;
67516;SDS011;68821;59.134;37.894;2023-07-31T02:23:55;47.70;;;18.67;;
67516;SDS011;68821;59.134;37.894;2023-07-31T02:26:21;33.03;;;13.20;;
67516;SDS011;68821;59.134;37.894;2023-07-31T02:28:47;46.33;;;15.95;;
67516;SDS011;68821;59.134;37.894;2023-07-31T02:31:13;83.60;;;27.80;;
67516;SDS011;68821;59.134;37.894;2023-07-31T02:33:41;93.53;;;27.48;;
67516;SDS011;68821;59.134;37.894;2023-07-31T02:36:07;78.15;;;28.17;;
67516;SDS011;68821;59.134;37.894;2023-07-31T02:38:33;75.65;;;30.25;;
67516;SDS011;68821;59.134;37.894;2023-07-31T02:40:59;62.72;;;23.15;;
67516;SDS011;68821;59.134;37.894;2023-07-31T02:43:25;69.03;;;24.20;;
67516;SDS011;68821;59.134;37.894;2023-07-31T02:45:54;54.03;;;19.80;;
67516;SDS011;68821;59.134;37.894;2023-07-31T02:48:20;58.45;;;19.58;;
67516;SDS011;68821;59.134;37.894;2023-07-31T02:50:46;65.97;;;20.42;;
67516;SDS011;68821;59.134;37.894;2023-07-31T02:53:13;68.38;;;23.33;;
67516;SDS011;68821;59.134;37.894;2023-07-31T02:55:39;66.25;;;23.88;;
67516;SDS011;68821;59.134;37.894;2023-07-31T02:58:06;77.20;;;27.00;;
67516;SDS011;68821;59.134;37.894;2023-07-31T03:00:32;82.25;;;25.92;;
67516;SDS011;68821;59.134;37.894;2023-07-31T03:02:58;64.88;;;21.15;;
67516;SDS011;68821;59.134;37.894;2023-07-31T03:05:24;46.13;;;17.55;;
67516;SDS011;68821;59.134;37.894;2023-07-31T03:07:50;59.63;;;19.65;;
67516;SDS011;68821;59.134;37.894;2023-07-31T03:10:16;71.68;;;21.08;;
67516;SDS011;68821;59.134;37.894;2023-07-31T03:12:42;101.50;;;28.45;;
67516;SDS011;68821;59.134;37.894;2023-07-31T03:15:08;104.60;;;32.45;;
67516;SDS011;68821;59.134;37.894;2023-07-31T03:17:34;108.25;;;32.63;;
67516;SDS011;68821;59.134;37.894;2023-07-31T03:20:00;102.05;;;32.40;;
67516;SDS011;68821;59.134;37.894;2023-07-31T03:22:26;92.15;;;31.55;;
67516;SDS011;68821;59.134;37.894;2023-07-31T03:24:52;96.65;;;27.75;;
67516;SDS011;68821;59.134;37.894;2023-07-31T03:27:18;114.00;;;31.73;;
67516;SDS011;68821;59.134;37.894;2023-07-31T03:29:45;115.38;;;34.50;;
67516;SDS011;68821;59.134;37.894;2023-07-31T03:32:11;92.35;;;28.02;;
67516;SDS011;68821;59.134;37.894;2023-07-31T03:34:37;103.00;;;29.25;;
67516;SDS011;68821;59.134;37.894;2023-07-31T03:37:03;102.75;;;30.25;;
67516;SDS011;68821;59.134;37.894;2023-07-31T03:39:30;98.60;;;29.02;;
67516;SDS011;68821;59.134;37.894;2023-07-31T03:41:56;106.25;;;29.83;;
67516;SDS011;68821;59.134;37.894;2023-07-31T03:44:22;102.10;;;28.35;;
67516;SDS011;68821;59.134;37.894;2023-07-31T03:46:48;97.43;;;28.95;;
67516;SDS011;68821;59.134;37.894;2023-07-31T03:49:14;66.45;;;20.77;;
67516;SDS011;68821;59.134;37.894;2023-07-31T03:51:40;64.53;;;20.55;;
67516;SDS011;68821;59.134;37.894;2023-07-31T03:54:07;41.78;;;13.88;;
67516;SDS011;68821;59.134;37.894;2023-07-31T03:56:33;41.88;;;18.50;;
67516;SDS011;68821;59.134;37.894;2023-07-31T03:58:59;61.75;;;30.52;;
67516;SDS011;68821;59.134;37.894;2023-07-31T04:01:26;54.45;;;26.33;;
67516;SDS011;68821;59.134;37.894;2023-07-31T04:03:52;45.35;;;18.90;;
67516;SDS011;68821;59.134;37.894;2023-07-31T04:06:18;43.95;;;17.88;;
67516;SDS011;68821;59.134;37.894;2023-07-31T04:08:44;42.45;;;17.83;;
67516;SDS011;68821;59.134;37.894;2023-07-31T04:11:10;31.17;;;14.57;;
67516;SDS011;68821;59.134;37.894;2023-07-31T04:13:38;38.55;;;19.15;;
67516;SDS011;68821;59.134;37.894;2023-07-31T04:16:04;36.20;;;19.17;;
67516;SDS011;68821;59.134;37.894;2023-07-31T04:18:30;42.80;;;15.10;;
67516;SDS011;68821;59.134;37.894;2023-07-31T04:20:57;57.35;;;20.15;;
67516;SDS011;68821;59.134;37.894;2023-07-31T04:23:25;89.30;;;29.42;;
67516;SDS011;68821;59.134;37.894;2023-07-31T04:25:51;89.22;;;29.33;;
67516;SDS011;68821;59.134;37.894;2023-07-31T04:28:17;81.13;;;27.13;;
67516;SDS011;68821;59.134;37.894;2023-07-31T04:30:43;90.68;;;29.85;;
67516;SDS011;68821;59.134;37.894;2023-07-31T04:33:09;68.75;;;21.95;;
67516;SDS011;68821;59.134;37.894;2023-07-31T04:35:35;32.75;;;14.57;;
67516;SDS011;68821;59.134;37.894;2023-07-31T04:38:01;39.78;;;13.98;;
67516;SDS011;68821;59.134;37.894;2023-07-31T04:40:30;35.20;;;12.73;;
67516;SDS011;68821;59.134;37.894;2023-07-31T04:42:56;37.92;;;14.13;;
67516;SDS011;68821;59.134;37.894;2023-07-31T04:45:22;33.42;;;13.43;;
67516;SDS011;68821;59.134;37.894;2023-07-31T04:47:48;35.05;;;15.48;;
67516;SDS011;68821;59.134;37.894;2023-07-31T04:50:14;38.55;;;13.95;;
67516;SDS011;68821;59.134;37.894;2023-07-31T04:52:40;20.35;;;9.68;;
67516;SDS011;68821;59.134;37.894;2023-07-31T04:55:06;31.13;;;13.18;;
67516;SDS011;68821;59.134;37.894;2023-07-31T04:57:32;64.75;;;25.90;;
67516;SDS011;68821;59.134;37.894;2023-07-31T05:00:00;69.38;;;25.20;;
67516;SDS011;68821;59.134;37.894;2023-07-31T05:02:26;93.53;;;36.33;;
67516;SDS011;68821;59.134;37.894;2023-07-31T05:04:53;86.07;;;33.00;;
67516;SDS011;68821;59.134;37.894;2023-07-31T05:07:19;53.30;;;19.15;;
67516;SDS011;68821;59.134;37.894;2023-07-31T05:09:45;52.60;;;18.77;;
67516;SDS011;68821;59.134;37.894;2023-07-31T05:12:11;39.55;;;14.95;;
67516;SDS011;68821;59.134;37.894;2023-07-31T05:14:37;33.78;;;13.52;;
67516;SDS011;68821;59.134;37.894;2023-07-31T05:17:03;39.33;;;15.55;;
67516;SDS011;68821;59.134;37.894;2023-07-31T05:19:29;33.53;;;13.52;;
67516;SDS011;68821;59.134;37.894;2023-07-31T05:21:56;29.00;;;11.93;;
67516;SDS011;68821;59.134;37.894;2023-07-31T05:24:22;67.50;;;23.05;;
67516;SDS011;68821;59.134;37.894;2023-07-31T05:26:48;74.53;;;27.55;;
67516;SDS011;68821;59.134;37.894;2023-07-31T05:29:14;81.13;;;28.17;;
67516;SDS011;68821;59.134;37.894;2023-07-31T05:31:40;60.80;;;20.90;;
67516;SDS011;68821;59.134;37.894;2023-07-31T05:34:06;31.98;;;11.60;;
67516;SDS011;68821;59.134;37.894;2023-07-31T05:36:32;7.93;;;3.90;;
67516;SDS011;68821;59.134;37.894;2023-07-31T05:38:58;10.25;;;3.10;;
67516;SDS011;68821;59.134;37.894;2023-07-31T05:41:24;23.30;;;7.82;;
67516;SDS011;68821;59.134;37.894;2023-07-31T05:43:50;27.13;;;8.23;;
67516;SDS011;68821;59.134;37.894;2023-07-31T05:46:17;35.03;;;10.73;;
67516;SDS011;68821;59.134;37.894;2023-07-31T05:48:43;31.25;;;10.25;;
67516;SDS011;68821;59.134;37.894;2023-07-31T05:51:09;42.13;;;15.80;;
67516;SDS011;68821;59.134;37.894;2023-07-31T05:53:35;44.92;;;17.65;;
67516;SDS011;68821;59.134;37.894;2023-07-31T05:56:03;40.15;;;14.02;;
67516;SDS011;68821;59.134;37.894;2023-07-31T05:58:29;34.75;;;12.73;;
67516;SDS011;68821;59.134;37.894;2023-07-31T06:00:55;29.25;;;12.20;;
67516;SDS011;68821;59.134;37.894;2023-07-31T06:03:21;25.92;;;10.07;;
67516;SDS011;68821;59.134;37.894;2023-07-31T06:05:47;26.70;;;8.93;;
67516;SDS011;68821;59.134;37.894;2023-07-31T06:08:13;15.43;;;6.25;;
67516;SDS011;68821;59.134;37.894;2023-07-31T06:10:40;16.92;;;6.35;;
67516;SDS011;68821;59.134;37.894;2023-07-31T06:13:06;14.93;;;4.88;;
67516;SDS011;68821;59.134;37.894;2023-07-31T06:15:32;12.55;;;4.57;;
67516;SDS011;68821;59.134;37.894;2023-07-31T06:17:58;13.40;;;4.20;;
67516;SDS011;68821;59.134;37.894;2023-07-31T06:20:27;8.63;;;3.63;;
67516;SDS011;68821;59.134;37.894;2023-07-31T06:22:54;6.90;;;2.70;;
67516;SDS011;68821;59.134;37.894;2023-07-31T06:25:20;9.27;;;3.10;;
67516;SDS011;68821;59.134;37.894;2023-07-31T06:27:46;9.82;;;2.75;;
67516;SDS011;68821;59.134;37.894;2023-07-31T06:30:12;7.20;;;2.45;;
67516;SDS011;68821;59.134;37.894;2023-07-31T06:32:38;13.70;;;4.50;;
67516;SDS011;68821;59.134;37.894;2023-07-31T06:35:06;26.42;;;9.05;;
67516;SDS011;68821;59.134;37.894;2023-07-31T06:37:32;20.38;;;7.35;;
67516;SDS011;68821;59.134;37.894;2023-07-31T06:39:58;15.38;;;5.82;;
67516;SDS011;68821;59.134;37.894;2023-07-31T06:42:24;17.98;;;5.85;;
67516;SDS011;68821;59.134;37.894;2023-07-31T06:44:51;19.33;;;8.00;;
67516;SDS011;68821;59.134;37.894;2023-07-31T06:47:17;22.70;;;9.43;;
67516;SDS011;68821;59.134;37.894;2023-07-31T06:49:43;26.38;;;12.27;;
67516;SDS011;68821;59.134;37.894;2023-07-31T06:52:09;22.80;;;10.93;;
67516;SDS011;68821;59.134;37.894;2023-07-31T06:54:36;19.42;;;8.32;;
67516;SDS011;68821;59.134;37.894;2023-07-31T06:57:02;25.35;;;9.48;;
67516;SDS011;68821;59.134;37.894;2023-07-31T06:59:29;34.47;;;13.82;;
67516;SDS011;68821;59.134;37.894;2023-07-31T07:01:55;27.55;;;11.85;;
67516;SDS011;68821;59.134;37.894;2023-07-31T07:04:21;30.80;;;12.95;;
67516;SDS011;68821;59.134;37.894;2023-07-31T07:06:47;34.80;;;11.57;;
67516;SDS011;68821;59.134;37.894;2023-07-31T07:09:13;18.85;;;8.10;;
67516;SDS011;68821;59.134;37.894;2023-07-31T07:11:39;15.40;;;5.82;;
67516;SDS011;68821;59.134;37.894;2023-07-31T07:14:05;9.90;;;6.15;;
67516;SDS011;68821;59.134;37.894;2023-07-31T07:16:31;14.73;;;6.57;;
67516;SDS011;68821;59.134;37.894;2023-07-31T07:18:57;12.77;;;6.13;;
67516;SDS011;68821;59.134;37.894;2023-07-31T07:21:23;14.90;;;5.68;;
67516;SDS011;68821;59.134;37.894;2023-07-31T07:23:49;23.27;;;10.90;;
67516;SDS011;68821;59.134;37.894;2023-07-31T07:26:15;10.60;;;4.75;;
67516;SDS011;68821;59.134;37.894;2023-07-31T07:28:41;12.40;;;4.93;;
67516;SDS011;68821;59.134;37.894;2023-07-31T07:31:08;22.23;;;7.35;;
67516;SDS011;68821;59.134;37.894;2023-07-31T07:33:34;7.25;;;3.90;;
67516;SDS011;68821;59.134;37.894;2023-07-31T07:36:00;18.10;;;7.72;;
67516;SDS011;68821;59.134;37.894;2023-07-31T07:38:27;15.18;;;7.57;;
67516;SDS011;68821;59.134;37.894;2023-07-31T07:40:53;35.00;;;14.73;;
67516;SDS011;68821;59.134;37.894;2023-07-31T07:43:20;37.40;;;13.88;;
67516;SDS011;68821;59.134;37.894;2023-07-31T07:45:46;52.17;;;18.15;;
67516;SDS011;68821;59.134;37.894;2023-07-31T07:48:12;28.02;;;12.40;;
67516;SDS011;68821;59.134;37.894;2023-07-31T07:50:38;17.92;;;7.35;;
67516;SDS011;68821;59.134;37.894;2023-07-31T07:53:05;12.20;;;4.15;;
67516;SDS011;68821;59.134;37.894;2023-07-31T07:55:31;7.95;;;3.72;;
67516;SDS011;68821;59.134;37.894;2023-07-31T07:57:57;9.82;;;3.90;;
67516;SDS011;68821;59.134;37.894;2023-07-31T08:00:23;12.40;;;5.38;;
67516;SDS011;68821;59.134;37.894;2023-07-31T08:02:49;6.20;;;2.95;;
67516;SDS011;68821;59.134;37.894;2023-07-31T08:05:15;18.52;;;7.22;;
67516;SDS011;68821;59.134;37.894;2023-07-31T08:07:43;54.67;;;23.98;;
67516;SDS011;68821;59.134;37.894;2023-07-31T08:10:09;48.80;;;22.48;;
67516;SDS011;68821;59.134;37.894;2023-07-31T08:12:35;24.40;;;9.88;;
67516;SDS011;68821;59.134;37.894;2023-07-31T08:15:01;8.45;;;4.07;;
67516;SDS011;68821;59.134;37.894;2023-07-31T08:17:27;9.32;;;3.50;;
67516;SDS011;68821;59.134;37.894;2023-07-31T08:19:53;15.25;;;5.90;;
67516;SDS011;68821;59.134;37.894;2023-07-31T08:22:19;16.90;;;5.53;;
67516;SDS011;68821;59.134;37.894;2023-07-31T08:24:45;6.47;;;2.90;;
67516;SDS011;68821;59.134;37.894;2023-07-31T08:27:11;7.40;;;3.22;;
67516;SDS011;68821;59.134;37.894;2023-07-31T08:29:37;5.82;;;2.88;;
67516;SDS011;68821;59.134;37.894;2023-07-31T08:32:03;5.65;;;2.83;;
67516;SDS011;68821;59.134;37.894;2023-07-31T08:34:29;7.88;;;3.50;;
67516;SDS011;68821;59.134;37.894;2023-07-31T08:36:56;6.90;;;3.72;;
67516;SDS011;68821;59.134;37.894;2023-07-31T08:39:22;6.50;;;2.60;;
67516;SDS011;68821;59.134;37.894;2023-07-31T08:41:48;6.35;;;3.00;;
67516;SDS011;68821;59.134;37.894;2023-07-31T08:44:14;6.75;;;2.78;;
67516;SDS011;68821;59.134;37.894;2023-07-31T08:46:42;9.00;;;3.47;;
67516;SDS011;68821;59.134;37.894;2023-07-31T08:49:09;6.63;;;3.50;;
67516;SDS011;68821;59.134;37.894;2023-07-31T08:51:36;4.57;;;2.40;;
67516;SDS011;68821;59.134;37.894;2023-07-31T08:54:02;5.53;;;3.08;;
67516;SDS011;68821;59.134;37.894;2023-07-31T08:56:32;8.57;;;2.90;;
67516;SDS011;68821;59.134;37.894;2023-07-31T08:58:59;5.40;;;2.28;;
67516;SDS011;68821;59.134;37.894;2023-07-31T09:01:28;5.00;;;2.35;;
67516;SDS011;68821;59.134;37.894;2023-07-31T09:03:58;5.85;;;2.08;;
67516;SDS011;68821;59.134;37.894;2023-07-31T09:06:26;43.70;;;15.27;;
67516;SDS011;68821;59.134;37.894;2023-07-31T09:08:55;44.55;;;16.88;;
67516;SDS011;68821;59.134;37.894;2023-07-31T09:11:21;10.57;;;4.50;;
67516;SDS011;68821;59.134;37.894;2023-07-31T09:13:50;8.10;;;2.88;;
67516;SDS011;68821;59.134;37.894;2023-07-31T09:16:16;6.32;;;2.65;;
67516;SDS011;68821;59.134;37.894;2023-07-31T09:18:54;5.68;;;2.17;;
67516;SDS011;68821;59.134;37.894;2023-07-31T09:21:22;4.40;;;2.30;;
67516;SDS011;68821;59.134;37.894;2023-07-31T09:23:49;4.68;;;2.30;;
67516;SDS011;68821;59.134;37.894;2023-07-31T09:26:35;4.28;;;2.15;;
67516;SDS011;68821;59.134;37.894;2023-07-31T09:29:06;5.38;;;2.22;;
67516;SDS011;68821;59.134;37.894;2023-07-31T09:31:43;12.73;;;5.72;;
67516;SDS011;68821;59.134;37.894;2023-07-31T09:36:40;8.40;;;3.58;;
67516;SDS011;68821;59.134;37.894;2023-07-31T09:39:11;5.43;;;2.22;;
67516;SDS011;68821;59.134;37.894;2023-07-31T09:41:42;7.90;;;3.00;;
67516;SDS011;68821;59.134;37.894;2023-07-31T09:44:10;7.07;;;2.95;;
67516;SDS011;68821;59.134;37.894;2023-07-31T09:46:37;10.32;;;3.53;;
67516;SDS011;68821;59.134;37.894;2023-07-31T09:49:10;10.13;;;2.97;;
67516;SDS011;68821;59.134;37.894;2023-07-31T09:51:38;9.50;;;3.15;;
67516;SDS011;68821;59.134;37.894;2023-07-31T09:54:09;5.95;;;2.42;;
67516;SDS011;68821;59.134;37.894;2023-07-31T09:56:44;4.53;;;2.10;;
67516;SDS011;68821;59.134;37.894;2023-07-31T09:59:13;6.78;;;2.40;;
67516;SDS011;68821;59.134;37.894;2023-07-31T10:01:40;5.05;;;2.10;;
67516;SDS011;68821;59.134;37.894;2023-07-31T10:04:08;4.93;;;2.05;;
67516;SDS011;68821;59.134;37.894;2023-07-31T10:06:36;5.03;;;2.22;;
67516;SDS011;68821;59.134;37.894;2023-07-31T10:09:05;7.80;;;2.10;;
67516;SDS011;68821;59.134;37.894;2023-07-31T10:11:34;5.65;;;2.20;;
67516;SDS011;68821;59.134;37.894;2023-07-31T10:14:20;11.93;;;3.00;;
67516;SDS011;68821;59.134;37.894;2023-07-31T10:16:47;4.35;;;2.00;;
67516;SDS011;68821;59.134;37.894;2023-07-31T10:19:13;5.45;;;2.00;;
67516;SDS011;68821;59.134;37.894;2023-07-31T10:21:40;4.00;;;1.92;;
67516;SDS011;68821;59.134;37.894;2023-07-31T10:24:08;4.45;;;2.38;;
67516;SDS011;68821;59.134;37.894;2023-07-31T10:26:34;4.28;;;2.30;;
67516;SDS011;68821;59.134;37.894;2023-07-31T10:29:03;5.18;;;2.38;;
67516;SDS011;68821;59.134;37.894;2023-07-31T10:31:31;6.80;;;2.80;;
67516;SDS011;68821;59.134;37.894;2023-07-31T10:33:59;7.57;;;2.85;;
67516;SDS011;68821;59.134;37.894;2023-07-31T10:38:52;5.00;;;2.50;;
67516;SDS011;68821;59.134;37.894;2023-07-31T10:41:27;9.90;;;3.15;;
67516;SDS011;68821;59.134;37.894;2023-07-31T10:43:57;6.53;;;2.30;;
67516;SDS011;68821;59.134;37.894;2023-07-31T10:46:24;4.95;;;2.10;;
67516;SDS011;68821;59.134;37.894;2023-07-31T10:51:28;5.60;;;2.50;;
67516;SDS011;68821;59.134;37.894;2023-07-31T10:54:10;8.40;;;3.88;;
67516;SDS011;68821;59.134;37.894;2023-07-31T10:56:44;8.63;;;4.10;;
67516;SDS011;68821;59.134;37.894;2023-07-31T10:59:11;9.65;;;3.58;;
67516;SDS011;68821;59.134;37.894;2023-07-31T11:01:56;6.80;;;3.10;;
67516;SDS011;68821;59.134;37.894;2023-07-31T11:04:26;4.72;;;2.40;;
67516;SDS011;68821;59.134;37.894;2023-07-31T11:06:56;6.97;;;2.28;;
67516;SDS011;68821;59.134;37.894;2023-07-31T11:09:29;12.50;;;4.70;;
67516;SDS011;68821;59.134;37.894;2023-07-31T11:11:58;16.85;;;7.63;;
67516;SDS011;68821;59.134;37.894;2023-07-31T11:14:24;10.85;;;5.40;;
67516;SDS011;68821;59.134;37.894;2023-07-31T11:16:51;26.08;;;10.18;;
67516;SDS011;68821;59.134;37.894;2023-07-31T11:19:23;15.32;;;6.43;;
67516;SDS011;68821;59.134;37.894;2023-07-31T11:21:51;11.38;;;5.85;;
67516;SDS011;68821;59.134;37.894;2023-07-31T11:24:18;14.68;;;6.88;;
67516;SDS011;68821;59.134;37.894;2023-07-31T11:26:51;16.33;;;7.25;;
67516;SDS011;68821;59.134;37.894;2023-07-31T11:29:18;12.38;;;5.53;;
67516;SDS011;68821;59.134;37.894;2023-07-31T11:31:46;11.05;;;5.65;;
67516;SDS011;68821;59.134;37.894;2023-07-31T11:34:13;18.10;;;5.78;;
67516;SDS011;68821;59.134;37.894;2023-07-31T11:36:39;16.10;;;5.32;;
67516;SDS011;68821;59.134;37.894;2023-07-31T11:39:07;15.73;;;6.60;;
67516;SDS011;68821;59.134;37.894;2023-07-31T11:41:34;9.15;;;3.75;;
67516;SDS011;68821;59.134;37.894;2023-07-31T11:44:00;9.43;;;3.88;;
67516;SDS011;68821;59.134;37.894;2023-07-31T11:46:30;21.08;;;8.68;;
67516;SDS011;68821;59.134;37.894;2023-07-31T11:49:00;17.10;;;5.80;;
67516;SDS011;68821;59.134;37.894;2023-07-31T11:51:26;17.15;;;6.90;;
67516;SDS011;68821;59.134;37.894;2023-07-31T11:53:56;15.32;;;6.40;;
67516;SDS011;68821;59.134;37.894;2023-07-31T11:56:24;28.73;;;10.57;;
67516;SDS011;68821;59.134;37.894;2023-07-31T11:58:53;26.35;;;11.25;;
67516;SDS011;68821;59.134;37.894;2023-07-31T12:01:29;29.55;;;11.80;;
67516;SDS011;68821;59.134;37.894;2023-07-31T12:03:56;27.05;;;10.05;;
67516;SDS011;68821;59.134;37.894;2023-07-31T12:06:32;12.85;;;5.60;;
67516;SDS011;68821;59.134;37.894;2023-07-31T12:09:04;8.35;;;3.60;;
67516;SDS011;68821;59.134;37.894;2023-07-31T12:11:30;15.55;;;4.30;;
67516;SDS011;68821;59.134;37.894;2023-07-31T12:13:57;9.98;;;3.53;;
67516;SDS011;68821;59.134;37.894;2023-07-31T12:16:26;15.18;;;4.80;;
67516;SDS011;68821;59.134;37.894;2023-07-31T12:18:53;9.00;;;4.25;;
67516;SDS011;68821;59.134;37.894;2023-07-31T12:21:19;15.30;;;6.15;;
67516;SDS011;68821;59.134;37.894;2023-07-31T12:23:46;19.17;;;8.20;;
67516;SDS011;68821;59.134;37.894;2023-07-31T12:26:13;22.40;;;7.72;;
67516;SDS011;68821;59.134;37.894;2023-07-31T12:31:13;11.07;;;4.22;;
67516;SDS011;68821;59.134;37.894;2023-07-31T12:33:43;8.30;;;3.50;;
67516;SDS011;68821;59.134;37.894;2023-07-31T12:36:13;10.77;;;4.22;;
67516;SDS011;68821;59.134;37.894;2023-07-31T12:38:41;8.95;;;3.88;;
67516;SDS011;68821;59.134;37.894;2023-07-31T12:41:07;9.13;;;3.25;;
67516;SDS011;68821;59.134;37.894;2023-07-31T12:43:34;11.10;;;3.50;;
67516;SDS011;68821;59.134;37.894;2023-07-31T12:46:01;7.25;;;3.10;;
67516;SDS011;68821;59.134;37.894;2023-07-31T12:50:53;13.48;;;3.83;;
67516;SDS011;68821;59.134;37.894;2023-07-31T12:53:20;9.65;;;4.03;;
67516;SDS011;68821;59.134;37.894;2023-07-31T12:55:46;11.57;;;3.75;;
67516;SDS011;68821;59.134;37.894;2023-07-31T12:58:12;15.70;;;6.70;;
67516;SDS011;68821;59.134;37.894;2023-07-31T13:00:38;13.27;;;5.25;;
67516;SDS011;68821;59.134;37.894;2023-07-31T13:03:04;8.00;;;3.75;;
67516;SDS011;68821;59.134;37.894;2023-07-31T13:05:30;4.72;;;2.40;;
67516;SDS011;68821;59.134;37.894;2023-07-31T13:07:57;6.43;;;2.78;;
67516;SDS011;68821;59.134;37.894;2023-07-31T13:10:23;5.45;;;2.20;;
67516;SDS011;68821;59.134;37.894;2023-07-31T13:12:51;6.28;;;2.85;;
67516;SDS011;68821;59.134;37.894;2023-07-31T13:15:17;7.82;;;2.97;;
67516;SDS011;68821;59.134;37.894;2023-07-31T13:17:43;8.38;;;2.92;;
67516;SDS011;68821;59.134;37.894;2023-07-31T13:20:09;7.18;;;3.30;;
67516;SDS011;68821;59.134;37.894;2023-07-31T13:22:36;9.70;;;5.22;;
67516;SDS011;68821;59.134;37.894;2023-07-31T13:25:02;18.98;;;8.63;;
67516;SDS011;68821;59.134;37.894;2023-07-31T13:27:28;11.15;;;4.20;;
67516;SDS011;68821;59.134;37.894;2023-07-31T13:29:55;6.22;;;2.80;;
67516;SDS011;68821;59.134;37.894;2023-07-31T13:32:21;6.70;;;3.22;;
67516;SDS011;68821;59.134;37.894;2023-07-31T13:37:14;10.15;;;4.43;;
67516;SDS011;68821;59.134;37.894;2023-07-31T13:39:40;11.02;;;4.60;;
67516;SDS011;68821;59.134;37.894;2023-07-31T13:42:07;13.23;;;5.00;;
67516;SDS011;68821;59.134;37.894;2023-07-31T13:44:34;13.25;;;6.93;;
67516;SDS011;68821;59.134;37.894;2023-07-31T13:47:01;23.25;;;9.77;;
67516;SDS011;68821;59.134;37.894;2023-07-31T13:49:27;16.70;;;7.22;;
67516;SDS011;68821;59.134;37.894;2023-07-31T13:51:54;13.07;;;4.57;;
67516;SDS011;68821;59.134;37.894;2023-07-31T13:54:20;7.50;;;4.57;;
67516;SDS011;68821;59.134;37.894;2023-07-31T13:56:46;8.35;;;3.45;;
67516;SDS011;68821;59.134;37.894;2023-07-31T13:59:12;8.45;;;3.70;;
67516;SDS011;68821;59.134;37.894;2023-07-31T14:01:40;8.43;;;3.88;;
67516;SDS011;68821;59.134;37.894;2023-07-31T14:04:06;17.55;;;8.07;;
67516;SDS011;68821;59.134;37.894;2023-07-31T14:06:32;25.63;;;10.15;;
67516;SDS011;68821;59.134;37.894;2023-07-31T14:09:01;23.05;;;13.48;;
67516;SDS011;68821;59.134;37.894;2023-07-31T14:11:28;19.00;;;8.55;;
67516;SDS011;68821;59.134;37.894;2023-07-31T14:13:54;13.63;;;8.27;;
67516;SDS011;68821;59.134;37.894;2023-07-31T14:16:22;22.75;;;9.95;;
67516;SDS011;68821;59.134;37.894;2023-07-31T14:18:48;18.52;;;7.32;;
67516;SDS011;68821;59.134;37.894;2023-07-31T14:21:14;10.60;;;5.15;;
67516;SDS011;68821;59.134;37.894;2023-07-31T14:23:40;11.30;;;4.38;;
67516;SDS011;68821;59.134;37.894;2023-07-31T14:26:07;11.75;;;5.10;;
67516;SDS011;68821;59.134;37.894;2023-07-31T14:28:33;8.32;;;3.47;;
67516;SDS011;68821;59.134;37.894;2023-07-31T14:30:59;8.90;;;3.30;;
67516;SDS011;68821;59.134;37.894;2023-07-31T14:33:25;10.23;;;3.15;;
67516;SDS011;68821;59.134;37.894;2023-07-31T14:35:52;7.40;;;3.25;;
67516;SDS011;68821;59.134;37.894;2023-07-31T14:38:18;8.38;;;3.50;;
67516;SDS011;68821;59.134;37.894;2023-07-31T14:40:44;9.52;;;2.72;;